sensor_id;sensor_type;location;lat;lon;timestamp;temperature;humidity
46440;DHT22;32138;50.966;6.968;2022-09-12T00:01:36;17.60;88.00
46440;DHT22;32138;50.966;6.968;2022-09-12T00:03:37;17.50;88.10
46440;DHT22;32138;50.966;6.968;2022-09-12T00:05:44;17.50;88.20
46440;DHT22;32138;50.966;6.968;2022-09-12T00:07:45;17.50;88.10
46440;DHT22;32138;50.966;6.968;2022-09-12T00:09:46;17.50;88.90
46440;DHT22;32138;50.966;6.968;2022-09-12T00:11:47;17.50;88.10
46440;DHT22;32138;50.966;6.968;2022-09-12T00:13:48;17.60;87.90
46440;DHT22;32138;50.966;6.968;2022-09-12T00:15:48;17.40;88.10
46440;DHT22;32138;50.966;6.968;2022-09-12T00:17:49;17.60;87.90
46440;DHT22;32138;50.966;6.968;2022-09-12T00:19:50;17.50;87.50
46440;DHT22;32138;50.966;6.968;2022-09-12T00:21:51;17.30;87.80
46440;DHT22;32138;50.966;6.968;2022-09-12T00:23:52;17.40;87.90
46440;DHT22;32138;50.966;6.968;2022-09-12T00:25:53;17.40;88.00
46440;DHT22;32138;50.966;6.968;2022-09-12T00:27:54;17.50;87.70
46440;DHT22;32138;50.966;6.968;2022-09-12T00:29:54;17.50;87.70
46440;DHT22;32138;50.966;6.968;2022-09-12T00:31:55;17.40;87.90
46440;DHT22;32138;50.966;6.968;2022-09-12T00:33:57;17.40;87.30
46440;DHT22;32138;50.966;6.968;2022-09-12T00:36:06;17.30;87.30
46440;DHT22;32138;50.966;6.968;2022-09-12T00:38:15;17.20;87.00
46440;DHT22;32138;50.966;6.968;2022-09-12T00:40:16;17.10;87.70
46440;DHT22;32138;50.966;6.968;2022-09-12T00:42:17;17.20;87.10
46440;DHT22;32138;50.966;6.968;2022-09-12T00:46:34;17.20;87.60
46440;DHT22;32138;50.966;6.968;2022-09-12T00:48:46;17.30;87.60
46440;DHT22;32138;50.966;6.968;2022-09-12T00:51:12;17.30;88.30
46440;DHT22;32138;50.966;6.968;2022-09-12T00:53:13;17.30;88.00
46440;DHT22;32138;50.966;6.968;2022-09-12T00:55:23;17.30;88.10
46440;DHT22;32138;50.966;6.968;2022-09-12T00:57:31;17.10;87.60
46440;DHT22;32138;50.966;6.968;2022-09-12T00:59:39;16.90;86.90
46440;DHT22;32138;50.966;6.968;2022-09-12T01:01:42;16.90;87.60
46440;DHT22;32138;50.966;6.968;2022-09-12T01:03:44;16.80;87.90
46440;DHT22;32138;50.966;6.968;2022-09-12T01:06:15;16.90;87.80
46440;DHT22;32138;50.966;6.968;2022-09-12T01:08:19;17.10;87.70
46440;DHT22;32138;50.966;6.968;2022-09-12T01:10:20;16.90;88.20
46440;DHT22;32138;50.966;6.968;2022-09-12T01:12:21;16.90;88.20
46440;DHT22;32138;50.966;6.968;2022-09-12T01:14:22;16.80;88.30
46440;DHT22;32138;50.966;6.968;2022-09-12T01:16:23;16.90;88.50
46440;DHT22;32138;50.966;6.968;2022-09-12T01:23:07;17.00;88.40
46440;DHT22;32138;50.966;6.968;2022-09-12T01:33:10;16.90;87.80
46440;DHT22;32138;50.966;6.968;2022-09-12T01:37:44;17.10;88.10
46440;DHT22;32138;50.966;6.968;2022-09-12T01:39:59;17.10;87.70
46440;DHT22;32138;50.966;6.968;2022-09-12T01:48:57;16.90;88.40
46440;DHT22;32138;50.966;6.968;2022-09-12T01:53:40;17.00;88.30
46440;DHT22;32138;50.966;6.968;2022-09-12T01:55:54;16.90;89.30
46440;DHT22;32138;50.966;6.968;2022-09-12T01:58:05;16.90;88.60
46440;DHT22;32138;50.966;6.968;2022-09-12T02:00:10;16.90;88.50
46440;DHT22;32138;50.966;6.968;2022-09-12T02:02:19;17.00;88.10
46440;DHT22;32138;50.966;6.968;2022-09-12T02:04:29;17.00;88.20
46440;DHT22;32138;50.966;6.968;2022-09-12T02:06:39;16.80;88.30
46440;DHT22;32138;50.966;6.968;2022-09-12T02:08:58;16.90;88.30
46440;DHT22;32138;50.966;6.968;2022-09-12T02:11:07;16.90;88.10
46440;DHT22;32138;50.966;6.968;2022-09-12T02:13:14;16.90;88.20
46440;DHT22;32138;50.966;6.968;2022-09-12T02:15:19;17.00;88.10
46440;DHT22;32138;50.966;6.968;2022-09-12T02:17:24;16.90;88.10
46440;DHT22;32138;50.966;6.968;2022-09-12T02:19:33;17.00;87.90
46440;DHT22;32138;50.966;6.968;2022-09-12T02:21:39;17.00;88.00
46440;DHT22;32138;50.966;6.968;2022-09-12T02:23:47;16.80;88.20
46440;DHT22;32138;50.966;6.968;2022-09-12T02:26:00;16.90;88.40
46440;DHT22;32138;50.966;6.968;2022-09-12T02:28:09;16.80;89.00
46440;DHT22;32138;50.966;6.968;2022-09-12T02:30:13;16.90;88.30
46440;DHT22;32138;50.966;6.968;2022-09-12T02:32:29;16.90;88.30
46440;DHT22;32138;50.966;6.968;2022-09-12T02:39:36;16.80;88.10
46440;DHT22;32138;50.966;6.968;2022-09-12T02:41:37;16.80;88.40
46440;DHT22;32138;50.966;6.968;2022-09-12T02:43:38;16.80;88.20
46440;DHT22;32138;50.966;6.968;2022-09-12T02:45:39;16.70;88.50
46440;DHT22;32138;50.966;6.968;2022-09-12T02:47:48;16.80;88.20
46440;DHT22;32138;50.966;6.968;2022-09-12T02:49:50;16.80;88.20
46440;DHT22;32138;50.966;6.968;2022-09-12T02:51:51;16.80;88.30
46440;DHT22;32138;50.966;6.968;2022-09-12T02:53:52;16.80;88.10
46440;DHT22;32138;50.966;6.968;2022-09-12T02:55:53;16.80;88.20
46440;DHT22;32138;50.966;6.968;2022-09-12T02:57:54;16.60;88.20
46440;DHT22;32138;50.966;6.968;2022-09-12T02:59:58;16.70;88.10
46440;DHT22;32138;50.966;6.968;2022-09-12T03:02:40;16.60;89.00
46440;DHT22;32138;50.966;6.968;2022-09-12T03:04:58;16.70;87.90
46440;DHT22;32138;50.966;6.968;2022-09-12T03:07:16;16.60;88.50
46440;DHT22;32138;50.966;6.968;2022-09-12T03:09:46;16.60;88.30
46440;DHT22;32138;50.966;6.968;2022-09-12T03:12:07;16.60;88.30
46440;DHT22;32138;50.966;6.968;2022-09-12T03:24:56;16.50;88.60
46440;DHT22;32138;50.966;6.968;2022-09-12T03:29:33;16.30;87.90
46440;DHT22;32138;50.966;6.968;2022-09-12T03:31:35;16.40;88.00
46440;DHT22;32138;50.966;6.968;2022-09-12T03:33:35;16.40;88.10
46440;DHT22;32138;50.966;6.968;2022-09-12T03:35:37;16.40;88.30
46440;DHT22;32138;50.966;6.968;2022-09-12T03:37:38;16.40;88.30
46440;DHT22;32138;50.966;6.968;2022-09-12T03:39:39;16.30;89.00
46440;DHT22;32138;50.966;6.968;2022-09-12T03:41:40;16.50;88.20
46440;DHT22;32138;50.966;6.968;2022-09-12T03:43:41;16.40;88.30
46440;DHT22;32138;50.966;6.968;2022-09-12T03:45:41;16.50;88.20
46440;DHT22;32138;50.966;6.968;2022-09-12T03:47:42;16.50;88.00
46440;DHT22;32138;50.966;6.968;2022-09-12T03:49:43;16.40;88.70
46440;DHT22;32138;50.966;6.968;2022-09-12T03:51:44;16.40;88.20
46440;DHT22;32138;50.966;6.968;2022-09-12T03:53:44;16.40;87.80
46440;DHT22;32138;50.966;6.968;2022-09-12T03:55:45;16.20;88.40
46440;DHT22;32138;50.966;6.968;2022-09-12T03:57:46;16.20;88.30
46440;DHT22;32138;50.966;6.968;2022-09-12T03:59:48;16.00;89.50
46440;DHT22;32138;50.966;6.968;2022-09-12T04:01:49;15.90;89.30
46440;DHT22;32138;50.966;6.968;2022-09-12T04:03:51;16.10;88.90
46440;DHT22;32138;50.966;6.968;2022-09-12T04:05:52;16.20;88.80
46440;DHT22;32138;50.966;6.968;2022-09-12T04:07:52;16.00;89.00
46440;DHT22;32138;50.966;6.968;2022-09-12T04:09:53;15.90;89.50
46440;DHT22;32138;50.966;6.968;2022-09-12T04:11:54;15.90;89.70
46440;DHT22;32138;50.966;6.968;2022-09-12T04:13:54;15.90;90.00
46440;DHT22;32138;50.966;6.968;2022-09-12T04:15:56;16.00;89.60
46440;DHT22;32138;50.966;6.968;2022-09-12T04:17:58;16.00;89.60
46440;DHT22;32138;50.966;6.968;2022-09-12T04:19:59;16.00;89.40
46440;DHT22;32138;50.966;6.968;2022-09-12T04:22:00;16.00;89.50
46440;DHT22;32138;50.966;6.968;2022-09-12T04:24:00;16.10;89.20
46440;DHT22;32138;50.966;6.968;2022-09-12T04:26:03;16.10;89.50
46440;DHT22;32138;50.966;6.968;2022-09-12T04:28:07;16.00;89.40
46440;DHT22;32138;50.966;6.968;2022-09-12T04:30:08;16.00;89.20
46440;DHT22;32138;50.966;6.968;2022-09-12T04:32:09;16.00;89.10
46440;DHT22;32138;50.966;6.968;2022-09-12T04:34:10;16.00;89.40
46440;DHT22;32138;50.966;6.968;2022-09-12T04:36:15;15.80;89.70
46440;DHT22;32138;50.966;6.968;2022-09-12T04:38:17;16.00;89.30
46440;DHT22;32138;50.966;6.968;2022-09-12T04:40:18;16.00;89.20
46440;DHT22;32138;50.966;6.968;2022-09-12T04:42:19;16.10;88.80
46440;DHT22;32138;50.966;6.968;2022-09-12T04:44:20;16.00;88.70
46440;DHT22;32138;50.966;6.968;2022-09-12T04:46:21;15.80;90.10
46440;DHT22;32138;50.966;6.968;2022-09-12T04:48:22;15.90;89.40
46440;DHT22;32138;50.966;6.968;2022-09-12T04:50:22;15.70;89.90
46440;DHT22;32138;50.966;6.968;2022-09-12T04:52:23;15.70;90.10
46440;DHT22;32138;50.966;6.968;2022-09-12T04:54:24;15.70;90.00
46440;DHT22;32138;50.966;6.968;2022-09-12T04:56:26;15.80;90.00
46440;DHT22;32138;50.966;6.968;2022-09-12T04:58:28;15.60;90.10
46440;DHT22;32138;50.966;6.968;2022-09-12T05:00:32;15.60;90.20
46440;DHT22;32138;50.966;6.968;2022-09-12T05:02:33;15.60;90.10
46440;DHT22;32138;50.966;6.968;2022-09-12T05:04:34;15.50;90.20
46440;DHT22;32138;50.966;6.968;2022-09-12T05:06:36;15.50;90.40
46440;DHT22;32138;50.966;6.968;2022-09-12T05:08:37;15.60;90.30
46440;DHT22;32138;50.966;6.968;2022-09-12T05:10:38;15.80;90.00
46440;DHT22;32138;50.966;6.968;2022-09-12T05:12:39;15.70;90.10
46440;DHT22;32138;50.966;6.968;2022-09-12T05:14:39;15.60;90.10
46440;DHT22;32138;50.966;6.968;2022-09-12T05:16:40;15.50;90.60
46440;DHT22;32138;50.966;6.968;2022-09-12T05:18:41;15.60;90.20
46440;DHT22;32138;50.966;6.968;2022-09-12T05:20:43;15.70;90.10
46440;DHT22;32138;50.966;6.968;2022-09-12T05:22:44;15.70;89.80
46440;DHT22;32138;50.966;6.968;2022-09-12T05:24:45;15.70;89.90
46440;DHT22;32138;50.966;6.968;2022-09-12T05:26:45;15.80;89.90
46440;DHT22;32138;50.966;6.968;2022-09-12T05:28:47;15.90;89.70
46440;DHT22;32138;50.966;6.968;2022-09-12T05:31:18;15.80;89.60
46440;DHT22;32138;50.966;6.968;2022-09-12T05:33:19;15.80;89.80
46440;DHT22;32138;50.966;6.968;2022-09-12T05:35:20;15.90;89.60
46440;DHT22;32138;50.966;6.968;2022-09-12T05:37:21;15.90;89.50
46440;DHT22;32138;50.966;6.968;2022-09-12T05:39:22;15.90;89.60
46440;DHT22;32138;50.966;6.968;2022-09-12T05:41:26;15.80;89.70
46440;DHT22;32138;50.966;6.968;2022-09-12T05:43:30;15.80;89.20
46440;DHT22;32138;50.966;6.968;2022-09-12T05:45:30;15.80;89.10
46440;DHT22;32138;50.966;6.968;2022-09-12T05:47:31;15.90;89.10
46440;DHT22;32138;50.966;6.968;2022-09-12T05:49:34;15.90;88.80
46440;DHT22;32138;50.966;6.968;2022-09-12T05:51:37;16.00;88.60
46440;DHT22;32138;50.966;6.968;2022-09-12T05:53:40;16.00;88.30
46440;DHT22;32138;50.966;6.968;2022-09-12T05:55:41;16.10;88.50
46440;DHT22;32138;50.966;6.968;2022-09-12T05:57:44;16.10;88.20
46440;DHT22;32138;50.966;6.968;2022-09-12T05:59:45;16.20;88.00
46440;DHT22;32138;50.966;6.968;2022-09-12T06:01:47;16.30;88.10
46440;DHT22;32138;50.966;6.968;2022-09-12T06:03:50;16.40;87.90
46440;DHT22;32138;50.966;6.968;2022-09-12T06:05:51;16.40;87.70
46440;DHT22;32138;50.966;6.968;2022-09-12T06:07:52;16.40;87.60
46440;DHT22;32138;50.966;6.968;2022-09-12T06:09:52;16.60;87.30
46440;DHT22;32138;50.966;6.968;2022-09-12T06:11:53;16.50;87.20
46440;DHT22;32138;50.966;6.968;2022-09-12T06:13:56;16.40;87.70
46440;DHT22;32138;50.966;6.968;2022-09-12T06:16:08;16.40;87.50
46440;DHT22;32138;50.966;6.968;2022-09-12T06:18:10;16.50;87.10
46440;DHT22;32138;50.966;6.968;2022-09-12T06:20:11;16.50;86.90
46440;DHT22;32138;50.966;6.968;2022-09-12T06:22:12;16.60;86.80
46440;DHT22;32138;50.966;6.968;2022-09-12T06:24:13;16.60;86.80
46440;DHT22;32138;50.966;6.968;2022-09-12T06:26:15;16.50;86.70
46440;DHT22;32138;50.966;6.968;2022-09-12T06:28:17;16.60;86.80
46440;DHT22;32138;50.966;6.968;2022-09-12T06:30:18;16.50;86.60
46440;DHT22;32138;50.966;6.968;2022-09-12T06:32:19;16.60;86.90
46440;DHT22;32138;50.966;6.968;2022-09-12T06:34:19;16.70;86.60
46440;DHT22;32138;50.966;6.968;2022-09-12T06:36:25;16.50;86.20
46440;DHT22;32138;50.966;6.968;2022-09-12T06:38:28;16.40;87.30
46440;DHT22;32138;50.966;6.968;2022-09-12T06:40:29;16.30;86.80
46440;DHT22;32138;50.966;6.968;2022-09-12T06:42:29;16.30;87.00
46440;DHT22;32138;50.966;6.968;2022-09-12T06:44:30;16.50;87.20
46440;DHT22;32138;50.966;6.968;2022-09-12T06:46:31;16.60;86.90
46440;DHT22;32138;50.966;6.968;2022-09-12T06:48:32;16.40;86.70
46440;DHT22;32138;50.966;6.968;2022-09-12T06:50:33;16.30;86.80
46440;DHT22;32138;50.966;6.968;2022-09-12T06:52:34;16.40;87.20
46440;DHT22;32138;50.966;6.968;2022-09-12T06:54:34;16.60;87.10
46440;DHT22;32138;50.966;6.968;2022-09-12T06:56:35;16.50;86.90
46440;DHT22;32138;50.966;6.968;2022-09-12T06:58:37;16.60;87.60
46440;DHT22;32138;50.966;6.968;2022-09-12T07:00:38;16.80;86.90
46440;DHT22;32138;50.966;6.968;2022-09-12T07:02:39;16.90;86.40
46440;DHT22;32138;50.966;6.968;2022-09-12T07:04:40;17.00;86.40
46440;DHT22;32138;50.966;6.968;2022-09-12T07:06:41;17.00;86.40
46440;DHT22;32138;50.966;6.968;2022-09-12T07:08:44;17.00;86.40
46440;DHT22;32138;50.966;6.968;2022-09-12T07:10:45;17.10;86.20
46440;DHT22;32138;50.966;6.968;2022-09-12T07:12:46;17.10;85.90
46440;DHT22;32138;50.966;6.968;2022-09-12T07:14:47;17.10;86.40
46440;DHT22;32138;50.966;6.968;2022-09-12T07:16:47;17.20;85.60
46440;DHT22;32138;50.966;6.968;2022-09-12T07:18:50;17.30;86.20
46440;DHT22;32138;50.966;6.968;2022-09-12T07:20:52;17.20;85.70
46440;DHT22;32138;50.966;6.968;2022-09-12T07:22:52;17.30;85.70
46440;DHT22;32138;50.966;6.968;2022-09-12T07:24:53;17.40;85.30
46440;DHT22;32138;50.966;6.968;2022-09-12T07:26:55;17.20;84.90
46440;DHT22;32138;50.966;6.968;2022-09-12T07:28:56;17.30;85.30
46440;DHT22;32138;50.966;6.968;2022-09-12T07:31:08;17.30;85.20
46440;DHT22;32138;50.966;6.968;2022-09-12T07:33:10;17.10;85.30
46440;DHT22;32138;50.966;6.968;2022-09-12T07:35:11;17.30;85.30
46440;DHT22;32138;50.966;6.968;2022-09-12T07:37:11;17.30;85.10
46440;DHT22;32138;50.966;6.968;2022-09-12T07:39:12;17.30;85.10
46440;DHT22;32138;50.966;6.968;2022-09-12T07:41:21;17.40;85.10
46440;DHT22;32138;50.966;6.968;2022-09-12T07:43:23;17.30;85.00
46440;DHT22;32138;50.966;6.968;2022-09-12T07:45:24;17.50;85.10
46440;DHT22;32138;50.966;6.968;2022-09-12T07:47:26;17.60;84.80
46440;DHT22;32138;50.966;6.968;2022-09-12T07:49:26;17.50;84.70
46440;DHT22;32138;50.966;6.968;2022-09-12T07:51:29;17.50;84.40
46440;DHT22;32138;50.966;6.968;2022-09-12T07:53:32;17.50;85.30
46440;DHT22;32138;50.966;6.968;2022-09-12T07:55:34;17.60;84.90
46440;DHT22;32138;50.966;6.968;2022-09-12T07:57:35;17.70;84.70
46440;DHT22;32138;50.966;6.968;2022-09-12T07:59:36;17.80;83.90
46440;DHT22;32138;50.966;6.968;2022-09-12T08:01:41;17.90;84.10
46440;DHT22;32138;50.966;6.968;2022-09-12T08:03:43;17.90;83.80
46440;DHT22;32138;50.966;6.968;2022-09-12T08:05:45;18.00;84.10
46440;DHT22;32138;50.966;6.968;2022-09-12T08:07:46;18.00;84.10
46440;DHT22;32138;50.966;6.968;2022-09-12T08:09:47;17.90;84.20
46440;DHT22;32138;50.966;6.968;2022-09-12T08:11:48;18.00;83.60
46440;DHT22;32138;50.966;6.968;2022-09-12T08:13:49;17.80;83.80
46440;DHT22;32138;50.966;6.968;2022-09-12T08:15:55;17.90;83.90
46440;DHT22;32138;50.966;6.968;2022-09-12T08:17:56;17.90;84.10
46440;DHT22;32138;50.966;6.968;2022-09-12T08:19:57;18.00;83.60
46440;DHT22;32138;50.966;6.968;2022-09-12T08:21:58;18.10;83.40
46440;DHT22;32138;50.966;6.968;2022-09-12T08:24:02;18.10;83.60
46440;DHT22;32138;50.966;6.968;2022-09-12T08:26:05;18.10;83.50
46440;DHT22;32138;50.966;6.968;2022-09-12T08:28:06;18.20;83.50
46440;DHT22;32138;50.966;6.968;2022-09-12T08:30:07;18.20;83.30
46440;DHT22;32138;50.966;6.968;2022-09-12T08:32:09;18.30;83.30
46440;DHT22;32138;50.966;6.968;2022-09-12T08:34:10;18.20;83.10
46440;DHT22;32138;50.966;6.968;2022-09-12T08:38:14;18.20;83.40
46440;DHT22;32138;50.966;6.968;2022-09-12T08:40:16;18.40;83.10
46440;DHT22;32138;50.966;6.968;2022-09-12T08:45:37;18.40;82.50
46440;DHT22;32138;50.966;6.968;2022-09-12T08:47:44;18.60;82.30
46440;DHT22;32138;50.966;6.968;2022-09-12T08:49:55;18.70;82.40
46440;DHT22;32138;50.966;6.968;2022-09-12T08:51:59;18.80;82.20
46440;DHT22;32138;50.966;6.968;2022-09-12T08:54:18;18.90;81.50
46440;DHT22;32138;50.966;6.968;2022-09-12T08:56:21;19.00;81.10
46440;DHT22;32138;50.966;6.968;2022-09-12T08:58:23;19.10;80.50
46440;DHT22;32138;50.966;6.968;2022-09-12T09:05:46;19.30;79.40
46440;DHT22;32138;50.966;6.968;2022-09-12T09:16:23;19.80;79.40
46440;DHT22;32138;50.966;6.968;2022-09-12T09:18:30;19.80;79.60
46440;DHT22;32138;50.966;6.968;2022-09-12T09:25:04;19.70;78.60
46440;DHT22;32138;50.966;6.968;2022-09-12T09:27:45;19.60;79.60
46440;DHT22;32138;50.966;6.968;2022-09-12T09:29:53;19.70;79.50
46440;DHT22;32138;50.966;6.968;2022-09-12T09:31:57;19.80;78.80
46440;DHT22;32138;50.966;6.968;2022-09-12T09:33:59;19.80;78.70
46440;DHT22;32138;50.966;6.968;2022-09-12T09:36:37;19.90;78.40
46440;DHT22;32138;50.966;6.968;2022-09-12T09:43:34;20.20;78.30
46440;DHT22;32138;50.966;6.968;2022-09-12T09:45:37;20.30;78.10
46440;DHT22;32138;50.966;6.968;2022-09-12T09:47:38;20.40;78.00
46440;DHT22;32138;50.966;6.968;2022-09-12T09:49:40;20.50;77.60
46440;DHT22;32138;50.966;6.968;2022-09-12T09:51:41;20.60;77.60
46440;DHT22;32138;50.966;6.968;2022-09-12T09:55:45;20.60;76.10
46440;DHT22;32138;50.966;6.968;2022-09-12T09:57:47;20.60;75.60
46440;DHT22;32138;50.966;6.968;2022-09-12T09:59:49;20.80;75.90
46440;DHT22;32138;50.966;6.968;2022-09-12T10:01:55;20.80;75.70
46440;DHT22;32138;50.966;6.968;2022-09-12T10:04:03;20.80;74.30
46440;DHT22;32138;50.966;6.968;2022-09-12T10:06:25;20.80;74.90
46440;DHT22;32138;50.966;6.968;2022-09-12T10:08:37;21.00;75.00
46440;DHT22;32138;50.966;6.968;2022-09-12T10:10:52;21.10;74.80
46440;DHT22;32138;50.966;6.968;2022-09-12T10:13:22;21.20;74.10
46440;DHT22;32138;50.966;6.968;2022-09-12T10:15:34;21.20;73.20
46440;DHT22;32138;50.966;6.968;2022-09-12T10:17:42;21.20;73.80
46440;DHT22;32138;50.966;6.968;2022-09-12T10:19:43;21.30;73.50
46440;DHT22;32138;50.966;6.968;2022-09-12T10:21:50;21.30;74.00
46440;DHT22;32138;50.966;6.968;2022-09-12T10:24:00;21.30;74.00
46440;DHT22;32138;50.966;6.968;2022-09-12T10:26:14;21.40;72.70
46440;DHT22;32138;50.966;6.968;2022-09-12T10:28:23;21.50;71.70
46440;DHT22;32138;50.966;6.968;2022-09-12T10:30:27;21.50;71.80
46440;DHT22;32138;50.966;6.968;2022-09-12T10:32:36;21.70;72.60
46440;DHT22;32138;50.966;6.968;2022-09-12T10:34:45;21.70;72.70
46440;DHT22;32138;50.966;6.968;2022-09-12T10:36:46;21.80;71.90
46440;DHT22;32138;50.966;6.968;2022-09-12T10:38:52;21.80;71.00
46440;DHT22;32138;50.966;6.968;2022-09-12T10:41:13;21.80;70.90
46440;DHT22;32138;50.966;6.968;2022-09-12T10:43:26;21.90;71.90
46440;DHT22;32138;50.966;6.968;2022-09-12T10:45:30;21.90;70.10
46440;DHT22;32138;50.966;6.968;2022-09-12T10:47:35;21.90;69.20
46440;DHT22;32138;50.966;6.968;2022-09-12T10:49:36;21.80;70.00
46440;DHT22;32138;50.966;6.968;2022-09-12T10:51:39;21.90;69.60
46440;DHT22;32138;50.966;6.968;2022-09-12T10:53:42;21.90;69.90
46440;DHT22;32138;50.966;6.968;2022-09-12T10:58:33;22.00;68.90
46440;DHT22;32138;50.966;6.968;2022-09-12T11:00:39;22.00;67.80
46440;DHT22;32138;50.966;6.968;2022-09-12T11:08:07;22.20;66.60
46440;DHT22;32138;50.966;6.968;2022-09-12T11:13:20;22.30;64.00
46440;DHT22;32138;50.966;6.968;2022-09-12T11:18:34;22.30;62.40
46440;DHT22;32138;50.966;6.968;2022-09-12T11:25:50;22.50;62.50
46440;DHT22;32138;50.966;6.968;2022-09-12T11:28:15;22.50;60.80
46440;DHT22;32138;50.966;6.968;2022-09-12T11:30:25;22.50;61.00
46440;DHT22;32138;50.966;6.968;2022-09-12T11:39:50;22.60;59.70
46440;DHT22;32138;50.966;6.968;2022-09-12T11:41:59;22.70;59.30
46440;DHT22;32138;50.966;6.968;2022-09-12T11:44:25;22.60;58.10
46440;DHT22;32138;50.966;6.968;2022-09-12T11:46:33;22.70;59.60
46440;DHT22;32138;50.966;6.968;2022-09-12T11:48:44;22.80;58.10
46440;DHT22;32138;50.966;6.968;2022-09-12T11:50:48;22.70;57.60
46440;DHT22;32138;50.966;6.968;2022-09-12T11:52:49;22.80;58.20
46440;DHT22;32138;50.966;6.968;2022-09-12T11:55:00;23.00;57.50
46440;DHT22;32138;50.966;6.968;2022-09-12T11:59:30;22.90;56.40
46440;DHT22;32138;50.966;6.968;2022-09-12T12:01:38;23.00;58.00
46440;DHT22;32138;50.966;6.968;2022-09-12T12:03:42;23.10;56.20
46440;DHT22;32138;50.966;6.968;2022-09-12T12:05:46;23.10;54.90
46440;DHT22;32138;50.966;6.968;2022-09-12T12:07:57;23.00;54.50
46440;DHT22;32138;50.966;6.968;2022-09-12T12:09:59;23.10;55.20
46440;DHT22;32138;50.966;6.968;2022-09-12T12:12:04;23.20;56.60
46440;DHT22;32138;50.966;6.968;2022-09-12T12:14:20;23.30;55.80
46440;DHT22;32138;50.966;6.968;2022-09-12T12:16:39;23.30;56.10
46440;DHT22;32138;50.966;6.968;2022-09-12T12:18:41;23.40;55.40
46440;DHT22;32138;50.966;6.968;2022-09-12T12:20:43;23.40;55.10
46440;DHT22;32138;50.966;6.968;2022-09-12T12:22:53;23.40;55.40
46440;DHT22;32138;50.966;6.968;2022-09-12T12:29:43;23.50;55.30
46440;DHT22;32138;50.966;6.968;2022-09-12T12:34:18;23.50;56.20
46440;DHT22;32138;50.966;6.968;2022-09-12T12:36:34;23.60;56.40
46440;DHT22;32138;50.966;6.968;2022-09-12T12:38:39;24.70;54.50
46440;DHT22;32138;50.966;6.968;2022-09-12T12:40:40;27.00;51.00
46440;DHT22;32138;50.966;6.968;2022-09-12T12:47:12;25.80;49.10
46440;DHT22;32138;50.966;6.968;2022-09-12T12:49:26;27.60;47.70
46440;DHT22;32138;50.966;6.968;2022-09-12T12:51:34;29.90;44.60
46440;DHT22;32138;50.966;6.968;2022-09-12T12:56:45;31.80;39.10
46440;DHT22;32138;50.966;6.968;2022-09-12T12:58:46;29.00;41.10
46440;DHT22;32138;50.966;6.968;2022-09-12T13:01:10;28.10;43.90
46440;DHT22;32138;50.966;6.968;2022-09-12T13:03:29;26.90;45.20
46440;DHT22;32138;50.966;6.968;2022-09-12T13:05:47;26.70;47.80
46440;DHT22;32138;50.966;6.968;2022-09-12T13:08:03;27.10;46.80
46440;DHT22;32138;50.966;6.968;2022-09-12T13:10:28;27.50;45.40
46440;DHT22;32138;50.966;6.968;2022-09-12T13:12:44;27.60;46.00
46440;DHT22;32138;50.966;6.968;2022-09-12T13:14:50;27.10;46.70
46440;DHT22;32138;50.966;6.968;2022-09-12T13:16:58;27.60;46.50
46440;DHT22;32138;50.966;6.968;2022-09-12T13:19:14;27.60;44.90
46440;DHT22;32138;50.966;6.968;2022-09-12T13:21:21;27.00;46.40
46440;DHT22;32138;50.966;6.968;2022-09-12T13:23:25;26.70;48.30
46440;DHT22;32138;50.966;6.968;2022-09-12T13:25:33;26.10;48.90
46440;DHT22;32138;50.966;6.968;2022-09-12T13:27:35;25.80;50.00
46440;DHT22;32138;50.966;6.968;2022-09-12T13:29:36;25.60;50.10
46440;DHT22;32138;50.966;6.968;2022-09-12T13:31:38;25.40;51.10
46440;DHT22;32138;50.966;6.968;2022-09-12T13:33:51;25.40;51.60
46440;DHT22;32138;50.966;6.968;2022-09-12T13:41:18;25.70;50.10
46440;DHT22;32138;50.966;6.968;2022-09-12T13:43:30;26.00;50.00
46440;DHT22;32138;50.966;6.968;2022-09-12T13:45:37;26.00;50.40
46440;DHT22;32138;50.966;6.968;2022-09-12T13:47:46;27.00;49.20
46440;DHT22;32138;50.966;6.968;2022-09-12T13:49:48;26.60;47.70
46440;DHT22;32138;50.966;6.968;2022-09-12T13:54:15;27.50;46.20
46440;DHT22;32138;50.966;6.968;2022-09-12T13:56:18;26.80;47.90
46440;DHT22;32138;50.966;6.968;2022-09-12T13:58:22;26.40;49.10
46440;DHT22;32138;50.966;6.968;2022-09-12T14:00:25;26.10;49.10
46440;DHT22;32138;50.966;6.968;2022-09-12T14:02:28;26.80;48.90
46440;DHT22;32138;50.966;6.968;2022-09-12T14:04:30;26.50;49.10
46440;DHT22;32138;50.966;6.968;2022-09-12T14:07:14;25.80;50.20
46440;DHT22;32138;50.966;6.968;2022-09-12T14:09:29;25.40;51.70
46440;DHT22;32138;50.966;6.968;2022-09-12T14:11:32;25.20;52.40
46440;DHT22;32138;50.966;6.968;2022-09-12T14:13:33;25.10;52.70
46440;DHT22;32138;50.966;6.968;2022-09-12T14:15:36;24.90;52.90
46440;DHT22;32138;50.966;6.968;2022-09-12T14:17:38;24.70;53.10
46440;DHT22;32138;50.966;6.968;2022-09-12T14:19:39;24.70;52.90
46440;DHT22;32138;50.966;6.968;2022-09-12T14:21:40;24.60;53.30
46440;DHT22;32138;50.966;6.968;2022-09-12T14:23:44;24.60;53.40
46440;DHT22;32138;50.966;6.968;2022-09-12T14:25:48;24.60;54.10
46440;DHT22;32138;50.966;6.968;2022-09-12T14:27:52;24.50;53.80
46440;DHT22;32138;50.966;6.968;2022-09-12T14:30:18;24.50;54.10
46440;DHT22;32138;50.966;6.968;2022-09-12T14:32:23;24.60;54.30
46440;DHT22;32138;50.966;6.968;2022-09-12T14:34:24;24.60;54.00
46440;DHT22;32138;50.966;6.968;2022-09-12T14:36:34;24.50;54.30
46440;DHT22;32138;50.966;6.968;2022-09-12T14:38:45;24.50;53.30
46440;DHT22;32138;50.966;6.968;2022-09-12T14:41:01;24.50;53.80
46440;DHT22;32138;50.966;6.968;2022-09-12T14:43:27;24.50;54.30
46440;DHT22;32138;50.966;6.968;2022-09-12T14:45:31;24.50;54.40
46440;DHT22;32138;50.966;6.968;2022-09-12T14:47:38;24.50;54.60
46440;DHT22;32138;50.966;6.968;2022-09-12T14:49:41;24.50;54.40
46440;DHT22;32138;50.966;6.968;2022-09-12T14:53:51;24.50;54.00
46440;DHT22;32138;50.966;6.968;2022-09-12T14:58:35;24.50;54.40
46440;DHT22;32138;50.966;6.968;2022-09-12T15:03:48;24.60;54.80
46440;DHT22;32138;50.966;6.968;2022-09-12T15:05:49;24.60;55.80
46440;DHT22;32138;50.966;6.968;2022-09-12T15:09:59;24.50;55.50
46440;DHT22;32138;50.966;6.968;2022-09-12T15:12:01;24.50;56.20
46440;DHT22;32138;50.966;6.968;2022-09-12T15:14:14;24.60;54.90
46440;DHT22;32138;50.966;6.968;2022-09-12T15:16:15;24.60;55.10
46440;DHT22;32138;50.966;6.968;2022-09-12T15:18:17;24.60;56.00
46440;DHT22;32138;50.966;6.968;2022-09-12T15:20:18;24.50;55.20
46440;DHT22;32138;50.966;6.968;2022-09-12T15:22:21;24.50;55.20
46440;DHT22;32138;50.966;6.968;2022-09-12T15:24:23;24.50;55.10
46440;DHT22;32138;50.966;6.968;2022-09-12T15:26:24;24.50;55.00
46440;DHT22;32138;50.966;6.968;2022-09-12T15:28:30;24.50;55.40